sensor_id;sensor_type;location;lat;lon;timestamp;pressure;altitude;pressure_sealevel;temperature;humidity
63808;BME280;49961;43.970;22.868;2023-03-01T00:00:48;102584.63;;;7.43;100.00
63808;BME280;49961;43.970;22.868;2023-03-01T00:01:48;102582.63;;;7.40;100.00
63808;BME280;49961;43.970;22.868;2023-03-01T00:02:49;102583.03;;;7.42;100.00
63808;BME280;49961;43.970;22.868;2023-03-01T00:03:50;102587.47;;;7.47;100.00
63808;BME280;49961;43.970;22.868;2023-03-01T00:04:50;102590.38;;;7.54;100.00
63808;BME280;49961;43.970;22.868;2023-03-01T00:05:51;102593.44;;;7.49;100.00
63808;BME280;49961;43.970;22.868;2023-03-01T00:06:51;102580.72;;;7.44;100.00
63808;BME280;49961;43.970;22.868;2023-03-01T00:07:53;102556.03;;;7.32;100.00
63808;BME280;49961;43.970;22.868;2023-03-01T00:08:53;102600.31;;;7.58;100.00
63808;BME280;49961;43.970;22.868;2023-03-01T00:09:54;102581.88;;;7.62;100.00
63808;BME280;49961;43.970;22.868;2023-03-01T00:11:18;102583.03;;;7.61;100.00
63808;BME280;49961;43.970;22.868;2023-03-01T00:12:19;102568.16;;;7.47;100.00
63808;BME280;49961;43.970;22.868;2023-03-01T00:13:19;102582.16;;;7.57;100.00
63808;BME280;49961;43.970;22.868;2023-03-01T00:14:19;102573.06;;;7.57;100.00
63808;BME280;49961;43.970;22.868;2023-03-01T00:15:20;102585.34;;;7.59;100.00
63808;BME280;49961;43.970;22.868;2023-03-01T00:16:27;102565.47;;;7.50;100.00
63808;BME280;49961;43.970;22.868;2023-03-01T00:17:27;102571.53;;;7.59;100.00
63808;BME280;49961;43.970;22.868;2023-03-01T00:18:28;102575.94;;;7.60;100.00
63808;BME280;49961;43.970;22.868;2023-03-01T00:19:29;102574.53;;;7.51;100.00
63808;BME280;49961;43.970;22.868;2023-03-01T00:20:29;102583.28;;;7.53;100.00
63808;BME280;49961;43.970;22.868;2023-03-01T00:21:30;102578.88;;;7.52;100.00
63808;BME280;49961;43.970;22.868;2023-03-01T00:22:31;102576.13;;;7.52;100.00
63808;BME280;49961;43.970;22.868;2023-03-01T00:23:33;102573.97;;;7.42;100.00
63808;BME280;49961;43.970;22.868;2023-03-01T00:24:34;102568.59;;;7.49;100.00
63808;BME280;49961;43.970;22.868;2023-03-01T00:25:41;102570.59;;;7.52;100.00
63808;BME280;49961;43.970;22.868;2023-03-01T00:26:41;102528.28;;;7.22;100.00
63808;BME280;49961;43.970;22.868;2023-03-01T00:27:42;102560.38;;;7.33;100.00
63808;BME280;49961;43.970;22.868;2023-03-01T00:28:42;102564.19;;;7.25;100.00
63808;BME280;49961;43.970;22.868;2023-03-01T00:29:43;102514.69;;;6.94;100.00
63808;BME280;49961;43.970;22.868;2023-03-01T00:30:43;102557.16;;;7.28;100.00
63808;BME280;49961;43.970;22.868;2023-03-01T00:31:44;102560.38;;;7.33;100.00
63808;BME280;49961;43.970;22.868;2023-03-01T00:34:04;102564.09;;;7.41;100.00
63808;BME280;49961;43.970;22.868;2023-03-01T00:35:05;102548.72;;;7.21;100.00
63808;BME280;49961;43.970;22.868;2023-03-01T00:36:06;102552.84;;;7.11;100.00
63808;BME280;49961;43.970;22.868;2023-03-01T00:37:06;102557.72;;;7.18;100.00
63808;BME280;49961;43.970;22.868;2023-03-01T00:38:07;102551.03;;;7.19;100.00
63808;BME280;49961;43.970;22.868;2023-03-01T00:39:12;102553.44;;;7.20;100.00
63808;BME280;49961;43.970;22.868;2023-03-01T00:40:13;102551.97;;;7.26;100.00
63808;BME280;49961;43.970;22.868;2023-03-01T00:41:18;102551.34;;;7.33;100.00
63808;BME280;49961;43.970;22.868;2023-03-01T00:42:18;102547.47;;;7.37;100.00
63808;BME280;49961;43.970;22.868;2023-03-01T00:43:19;102553.88;;;7.41;100.00
63808;BME280;49961;43.970;22.868;2023-03-01T00:44:19;102550.53;;;7.32;100.00
63808;BME280;49961;43.970;22.868;2023-03-01T00:45:20;102555.22;;;7.32;100.00
63808;BME280;49961;43.970;22.868;2023-03-01T00:46:23;102558.28;;;7.27;100.00
63808;BME280;49961;43.970;22.868;2023-03-01T00:47:24;102521.66;;;7.07;100.00
63808;BME280;49961;43.970;22.868;2023-03-01T00:48:24;102546.47;;;7.26;100.00
63808;BME280;49961;43.970;22.868;2023-03-01T00:49:25;102557.28;;;7.35;100.00
63808;BME280;49961;43.970;22.868;2023-03-01T00:50:27;102550.59;;;7.36;100.00
63808;BME280;49961;43.970;22.868;2023-03-01T00:51:29;102475.59;;;6.89;100.00
63808;BME280;49961;43.970;22.868;2023-03-01T00:52:29;102547.06;;;7.35;100.00
63808;BME280;49961;43.970;22.868;2023-03-01T00:53:30;102541.16;;;7.37;100.00
63808;BME280;49961;43.970;22.868;2023-03-01T00:54:30;102520.13;;;7.29;100.00
63808;BME280;49961;43.970;22.868;2023-03-01T00:55:31;102540.19;;;7.48;100.00
63808;BME280;49961;43.970;22.868;2023-03-01T00:56:32;102483.28;;;7.18;100.00
63808;BME280;49961;43.970;22.868;2023-03-01T00:57:32;102412.06;;;6.63;100.00
63808;BME280;49961;43.970;22.868;2023-03-01T00:58:34;102537.09;;;7.31;100.00
63808;BME280;49961;43.970;22.868;2023-03-01T00:59:34;102533.34;;;7.20;100.00
63808;BME280;49961;43.970;22.868;2023-03-01T01:00:35;102542.84;;;7.22;100.00
63808;BME280;49961;43.970;22.868;2023-03-01T01:01:36;102541.59;;;7.20;100.00
63808;BME280;49961;43.970;22.868;2023-03-01T01:02:37;102471.47;;;6.79;100.00
63808;BME280;49961;43.970;22.868;2023-03-01T01:03:37;102529.88;;;7.23;100.00
63808;BME280;49961;43.970;22.868;2023-03-01T01:04:37;102527.03;;;7.19;100.00
63808;BME280;49961;43.970;22.868;2023-03-01T01:05:38;102533.97;;;7.13;100.00
63808;BME280;49961;43.970;22.868;2023-03-01T01:06:39;102530.81;;;7.11;100.00
63808;BME280;49961;43.970;22.868;2023-03-01T01:07:42;102525.06;;;7.20;100.00
63808;BME280;49961;43.970;22.868;2023-03-01T01:08:42;102533.63;;;7.15;100.00
63808;BME280;49961;43.970;22.868;2023-03-01T01:09:43;102538.50;;;7.21;100.00
63808;BME280;49961;43.970;22.868;2023-03-01T01:10:44;102428.53;;;6.59;100.00
63808;BME280;49961;43.970;22.868;2023-03-01T01:11:50;102531.38;;;7.20;100.00
63808;BME280;49961;43.970;22.868;2023-03-01T01:12:50;102530.63;;;7.23;100.00
63808;BME280;49961;43.970;22.868;2023-03-01T01:13:52;102538.31;;;7.33;100.00
63808;BME280;49961;43.970;22.868;2023-03-01T01:14:53;102532.50;;;7.38;100.00
63808;BME280;49961;43.970;22.868;2023-03-01T01:15:53;102530.63;;;7.42;100.00
63808;BME280;49961;43.970;22.868;2023-03-01T01:16:54;102522.13;;;7.32;100.00
63808;BME280;49961;43.970;22.868;2023-03-01T01:17:54;102532.66;;;7.45;100.00
63808;BME280;49961;43.970;22.868;2023-03-01T01:18:56;102551.53;;;7.43;100.00
63808;BME280;49961;43.970;22.868;2023-03-01T01:19:57;102524.31;;;7.42;100.00
63808;BME280;49961;43.970;22.868;2023-03-01T01:20:57;102533.03;;;7.44;100.00
63808;BME280;49961;43.970;22.868;2023-03-01T01:21:57;102381.81;;;6.47;100.00
63808;BME280;49961;43.970;22.868;2023-03-01T01:22:58;102526.88;;;7.31;100.00
63808;BME280;49961;43.970;22.868;2023-03-01T01:23:59;102496.84;;;7.07;100.00
63808;BME280;49961;43.970;22.868;2023-03-01T01:24:59;102521.34;;;7.12;100.00
63808;BME280;49961;43.970;22.868;2023-03-01T01:26:05;102419.16;;;6.45;100.00
63808;BME280;49961;43.970;22.868;2023-03-01T01:27:05;102524.75;;;7.06;100.00
63808;BME280;49961;43.970;22.868;2023-03-01T01:28:07;102513.31;;;7.04;100.00
63808;BME280;49961;43.970;22.868;2023-03-01T01:29:08;102514.03;;;7.20;100.00
63808;BME280;49961;43.970;22.868;2023-03-01T01:30:09;102519.53;;;7.20;100.00
63808;BME280;49961;43.970;22.868;2023-03-01T01:31:10;102404.53;;;6.41;100.00
63808;BME280;49961;43.970;22.868;2023-03-01T01:32:10;102516.50;;;7.25;100.00
63808;BME280;49961;43.970;22.868;2023-03-01T01:33:11;102513.81;;;7.28;100.00
63808;BME280;49961;43.970;22.868;2023-03-01T01:34:18;102518.66;;;7.35;100.00
63808;BME280;49961;43.970;22.868;2023-03-01T01:35:18;102515.19;;;7.38;100.00
63808;BME280;49961;43.970;22.868;2023-03-01T01:36:19;102513.56;;;7.37;100.00
63808;BME280;49961;43.970;22.868;2023-03-01T01:37:20;102507.22;;;7.33;100.00
63808;BME280;49961;43.970;22.868;2023-03-01T01:38:21;102512.72;;;7.33;100.00
63808;BME280;49961;43.970;22.868;2023-03-01T01:39:22;102514.72;;;7.36;100.00
63808;BME280;49961;43.970;22.868;2023-03-01T01:40:22;102510.75;;;7.33;100.00
63808;BME280;49961;43.970;22.868;2023-03-01T01:41:24;102502.34;;;7.26;100.00
63808;BME280;49961;43.970;22.868;2023-03-01T01:42:25;102351.25;;;6.33;100.00
63808;BME280;49961;43.970;22.868;2023-03-01T01:43:32;102510.44;;;7.38;100.00
63808;BME280;49961;43.970;22.868;2023-03-01T01:44:34;102514.66;;;7.32;100.00
63808;BME280;49961;43.970;22.868;2023-03-01T01:45:35;102507.56;;;7.31;100.00
63808;BME280;49961;43.970;22.868;2023-03-01T01:46:37;102448.56;;;6.94;100.00
63808;BME280;49961;43.970;22.868;2023-03-01T01:47:39;102507.28;;;7.36;100.00
63808;BME280;49961;43.970;22.868;2023-03-01T01:48:42;102508.50;;;7.39;100.00
63808;BME280;49961;43.970;22.868;2023-03-01T01:49:49;102500.22;;;7.39;100.00
63808;BME280;49961;43.970;22.868;2023-03-01T01:50:56;102526.00;;;7.46;100.00
63808;BME280;49961;43.970;22.868;2023-03-01T01:52:22;102511.25;;;7.39;100.00
63808;BME280;49961;43.970;22.868;2023-03-01T01:53:24;102427.72;;;6.97;100.00
63808;BME280;49961;43.970;22.868;2023-03-01T01:54:31;102506.31;;;7.48;100.00
63808;BME280;49961;43.970;22.868;2023-03-01T01:55:37;102369.44;;;6.57;100.00
63808;BME280;49961;43.970;22.868;2023-03-01T01:56:43;102507.09;;;7.48;100.00
63808;BME280;49961;43.970;22.868;2023-03-01T01:57:54;102501.72;;;7.55;100.00
63808;BME280;49961;43.970;22.868;2023-03-01T01:58:55;102504.84;;;7.54;100.00
63808;BME280;49961;43.970;22.868;2023-03-01T01:59:59;102504.03;;;7.53;100.00
63808;BME280;49961;43.970;22.868;2023-03-01T02:01:00;102492.38;;;7.41;100.00
63808;BME280;49961;43.970;22.868;2023-03-01T02:02:03;102400.19;;;6.78;100.00
63808;BME280;49961;43.970;22.868;2023-03-01T02:03:11;102510.72;;;7.52;100.00
63808;BME280;49961;43.970;22.868;2023-03-01T02:04:13;102508.47;;;7.58;100.00
63808;BME280;49961;43.970;22.868;2023-03-01T02:05:42;102507.72;;;7.61;100.00
63808;BME280;49961;43.970;22.868;2023-03-01T02:06:58;102479.75;;;7.40;100.00
63808;BME280;49961;43.970;22.868;2023-03-01T02:08:00;102504.53;;;7.59;100.00
63808;BME280;49961;43.970;22.868;2023-03-01T02:09:07;102501.22;;;7.72;100.00
63808;BME280;49961;43.970;22.868;2023-03-01T02:10:09;102494.53;;;7.73;100.00
63808;BME280;49961;43.970;22.868;2023-03-01T02:11:10;102497.66;;;7.72;100.00
63808;BME280;49961;43.970;22.868;2023-03-01T02:12:12;102488.66;;;7.52;100.00
63808;BME280;49961;43.970;22.868;2023-03-01T02:13:13;102492.75;;;7.62;100.00
63808;BME280;49961;43.970;22.868;2023-03-01T02:14:14;102387.69;;;6.84;100.00
63808;BME280;49961;43.970;22.868;2023-03-01T02:15:15;102487.41;;;7.50;100.00
63808;BME280;49961;43.970;22.868;2023-03-01T02:16:16;102489.88;;;7.55;100.00
63808;BME280;49961;43.970;22.868;2023-03-01T02:17:18;102492.44;;;7.44;100.00
63808;BME280;49961;43.970;22.868;2023-03-01T02:18:21;102469.72;;;7.32;100.00
63808;BME280;49961;43.970;22.868;2023-03-01T02:22:02;102486.16;;;7.66;100.00
63808;BME280;49961;43.970;22.868;2023-03-01T02:23:07;102479.81;;;7.66;100.00
63808;BME280;49961;43.970;22.868;2023-03-01T02:27:11;102475.84;;;7.63;100.00
63808;BME280;49961;43.970;22.868;2023-03-01T02:29:15;102473.94;;;7.67;100.00
63808;BME280;49961;43.970;22.868;2023-03-01T02:30:17;102480.38;;;7.75;100.00
63808;BME280;49961;43.970;22.868;2023-03-01T02:31:20;102481.16;;;7.75;100.00
63808;BME280;49961;43.970;22.868;2023-03-01T02:32:41;102475.63;;;7.75;100.00
63808;BME280;49961;43.970;22.868;2023-03-01T02:33:42;102476.88;;;7.78;100.00
63808;BME280;49961;43.970;22.868;2023-03-01T02:34:44;102476.50;;;7.79;100.00
63808;BME280;49961;43.970;22.868;2023-03-01T02:35:45;102477.72;;;7.82;100.00
63808;BME280;49961;43.970;22.868;2023-03-01T02:36:48;102455.00;;;7.66;100.00
63808;BME280;49961;43.970;22.868;2023-03-01T02:37:51;102477.41;;;7.87;100.00
63808;BME280;49961;43.970;22.868;2023-03-01T02:38:54;102375.69;;;7.14;100.00
63808;BME280;49961;43.970;22.868;2023-03-01T02:40:03;102474.91;;;7.78;100.00
63808;BME280;49961;43.970;22.868;2023-03-01T02:41:05;102474.19;;;7.81;100.00
63808;BME280;49961;43.970;22.868;2023-03-01T02:42:10;102479.00;;;7.88;100.00
63808;BME280;49961;43.970;22.868;2023-03-01T02:43:12;102478.09;;;7.80;100.00
63808;BME280;49961;43.970;22.868;2023-03-01T02:44:13;102474.09;;;7.78;100.00
63808;BME280;49961;43.970;22.868;2023-03-01T02:45:14;102469.34;;;7.75;100.00
63808;BME280;49961;43.970;22.868;2023-03-01T02:46:20;102477.00;;;7.85;100.00
63808;BME280;49961;43.970;22.868;2023-03-01T02:47:21;102483.00;;;7.90;100.00
63808;BME280;49961;43.970;22.868;2023-03-01T02:48:21;102475.88;;;7.89;100.00
63808;BME280;49961;43.970;22.868;2023-03-01T02:49:28;102479.47;;;7.90;100.00
63808;BME280;49961;43.970;22.868;2023-03-01T02:51:56;102468.38;;;7.86;100.00
63808;BME280;49961;43.970;22.868;2023-03-01T02:55:16;102369.22;;;7.29;100.00
63808;BME280;49961;43.970;22.868;2023-03-01T02:56:17;102483.81;;;7.91;100.00
63808;BME280;49961;43.970;22.868;2023-03-01T02:57:19;102477.47;;;7.90;100.00
63808;BME280;49961;43.970;22.868;2023-03-01T02:58:19;102474.72;;;7.90;100.00
63808;BME280;49961;43.970;22.868;2023-03-01T02:59:23;102482.22;;;7.90;100.00
63808;BME280;49961;43.970;22.868;2023-03-01T03:00:28;102476.69;;;7.90;100.00
63808;BME280;49961;43.970;22.868;2023-03-01T03:01:30;102472.75;;;7.91;100.00
63808;BME280;49961;43.970;22.868;2023-03-01T03:02:36;102479.09;;;7.91;100.00
63808;BME280;49961;43.970;22.868;2023-03-01T03:03:37;102480.84;;;7.80;100.00
63808;BME280;49961;43.970;22.868;2023-03-01T03:04:37;102434.75;;;7.58;100.00
63808;BME280;49961;43.970;22.868;2023-03-01T03:05:38;102482.16;;;7.86;100.00
63808;BME280;49961;43.970;22.868;2023-03-01T03:06:38;102471.91;;;7.87;100.00
63808;BME280;49961;43.970;22.868;2023-03-01T03:07:41;102369.09;;;7.22;100.00
63808;BME280;49961;43.970;22.868;2023-03-01T03:08:42;102481.84;;;7.91;100.00
63808;BME280;49961;43.970;22.868;2023-03-01T03:09:44;102480.22;;;7.90;100.00
63808;BME280;49961;43.970;22.868;2023-03-01T03:10:44;102482.28;;;7.93;100.00
63808;BME280;49961;43.970;22.868;2023-03-01T03:11:45;102481.47;;;7.93;100.00
63808;BME280;49961;43.970;22.868;2023-03-01T03:12:54;102431.53;;;7.53;100.00
63808;BME280;49961;43.970;22.868;2023-03-01T03:13:56;102476.44;;;7.76;100.00
63808;BME280;49961;43.970;22.868;2023-03-01T03:14:57;102467.00;;;7.77;100.00
63808;BME280;49961;43.970;22.868;2023-03-01T03:15:58;102475.34;;;7.80;100.00
63808;BME280;49961;43.970;22.868;2023-03-01T03:16:58;102468.53;;;7.74;100.00
63808;BME280;49961;43.970;22.868;2023-03-01T03:17:59;102467.81;;;7.77;100.00
63808;BME280;49961;43.970;22.868;2023-03-01T03:18:59;102465.72;;;7.71;100.00
63808;BME280;49961;43.970;22.868;2023-03-01T03:20:06;102467.50;;;7.60;100.00
63808;BME280;49961;43.970;22.868;2023-03-01T03:21:11;102449.16;;;7.48;100.00
63808;BME280;49961;43.970;22.868;2023-03-01T03:22:12;102465.28;;;7.46;100.00
63808;BME280;49961;43.970;22.868;2023-03-01T03:23:13;102455.03;;;7.47;100.00
63808;BME280;49961;43.970;22.868;2023-03-01T03:24:13;102457.88;;;7.50;100.00
63808;BME280;49961;43.970;22.868;2023-03-01T03:25:15;102465.56;;;7.60;100.00
63808;BME280;49961;43.970;22.868;2023-03-01T03:26:15;102459.78;;;7.69;100.00
63808;BME280;49961;43.970;22.868;2023-03-01T03:27:16;102355.88;;;7.09;100.00
63808;BME280;49961;43.970;22.868;2023-03-01T03:28:17;102459.09;;;7.75;100.00
63808;BME280;49961;43.970;22.868;2023-03-01T03:29:17;102442.72;;;7.63;100.00
63808;BME280;49961;43.970;22.868;2023-03-01T03:30:19;102458.72;;;7.77;100.00
63808;BME280;49961;43.970;22.868;2023-03-01T03:31:21;102377.44;;;7.26;100.00
63808;BME280;49961;43.970;22.868;2023-03-01T03:32:22;102455.91;;;7.73;100.00
63808;BME280;49961;43.970;22.868;2023-03-01T03:33:22;102456.56;;;7.67;100.00
63808;BME280;49961;43.970;22.868;2023-03-01T03:34:23;102459.72;;;7.65;100.00
63808;BME280;49961;43.970;22.868;2023-03-01T03:35:29;102451.38;;;7.62;100.00
63808;BME280;49961;43.970;22.868;2023-03-01T03:36:30;102294.78;;;6.62;100.00
63808;BME280;49961;43.970;22.868;2023-03-01T03:37:30;102464.25;;;7.77;100.00
63808;BME280;49961;43.970;22.868;2023-03-01T03:38:50;102463.56;;;7.83;100.00
63808;BME280;49961;43.970;22.868;2023-03-01T03:39:50;102458.84;;;7.84;100.00
63808;BME280;49961;43.970;22.868;2023-03-01T03:41:03;102460.25;;;7.74;100.00
63808;BME280;49961;43.970;22.868;2023-03-01T03:42:04;102465.06;;;7.77;100.00
63808;BME280;49961;43.970;22.868;2023-03-01T03:43:23;102462.84;;;7.86;100.00
63808;BME280;49961;43.970;22.868;2023-03-01T03:45:01;102464.47;;;7.91;100.00
63808;BME280;49961;43.970;22.868;2023-03-01T03:46:20;102468.78;;;7.88;100.00
63808;BME280;49961;43.970;22.868;2023-03-01T03:48:42;102460.00;;;7.83;100.00
63808;BME280;49961;43.970;22.868;2023-03-01T03:49:43;102460.50;;;7.88;100.00
63808;BME280;49961;43.970;22.868;2023-03-01T03:50:51;102452.22;;;7.88;100.00
63808;BME280;49961;43.970;22.868;2023-03-01T03:51:52;102463.34;;;7.95;100.00
63808;BME280;49961;43.970;22.868;2023-03-01T03:52:53;102465.50;;;7.83;100.00
63808;BME280;49961;43.970;22.868;2023-03-01T03:53:53;102468.38;;;7.86;100.00
63808;BME280;49961;43.970;22.868;2023-03-01T03:54:54;102471.53;;;7.88;100.00
63808;BME280;49961;43.970;22.868;2023-03-01T03:55:55;102460.53;;;7.92;100.00
63808;BME280;49961;43.970;22.868;2023-03-01T03:56:56;102461.31;;;7.89;100.00
63808;BME280;49961;43.970;22.868;2023-03-01T03:58:00;102457.47;;;7.97;100.00
63808;BME280;49961;43.970;22.868;2023-03-01T03:59:06;102421.50;;;7.67;100.00
63808;BME280;49961;43.970;22.868;2023-03-01T04:00:26;102458.53;;;7.89;100.00
63808;BME280;49961;43.970;22.868;2023-03-01T04:01:26;102331.06;;;7.09;100.00
63808;BME280;49961;43.970;22.868;2023-03-01T04:02:26;102457.69;;;7.85;100.00
63808;BME280;49961;43.970;22.868;2023-03-01T04:03:28;102347.34;;;7.17;100.00
63808;BME280;49961;43.970;22.868;2023-03-01T04:04:29;102459.28;;;7.86;100.00
63808;BME280;49961;43.970;22.868;2023-03-01T04:05:30;102456.50;;;7.86;100.00
63808;BME280;49961;43.970;22.868;2023-03-01T04:06:31;102462.09;;;7.89;100.00
63808;BME280;49961;43.970;22.868;2023-03-01T04:07:31;102472.81;;;7.94;100.00
63808;BME280;49961;43.970;22.868;2023-03-01T04:08:32;102460.69;;;7.99;100.00
63808;BME280;49961;43.970;22.868;2023-03-01T04:09:32;102462.31;;;8.03;100.00
63808;BME280;49961;43.970;22.868;2023-03-01T04:10:36;102364.72;;;7.40;100.00
63808;BME280;49961;43.970;22.868;2023-03-01T04:11:37;102466.31;;;8.06;100.00
63808;BME280;49961;43.970;22.868;2023-03-01T04:12:38;102469.44;;;8.04;100.00
63808;BME280;49961;43.970;22.868;2023-03-01T04:13:39;102463.91;;;8.04;100.00
63808;BME280;49961;43.970;22.868;2023-03-01T04:14:39;102469.06;;;8.06;100.00
63808;BME280;49961;43.970;22.868;2023-03-01T04:15:40;102463.75;;;7.94;100.00
63808;BME280;49961;43.970;22.868;2023-03-01T04:16:40;102465.16;;;7.84;100.00
63808;BME280;49961;43.970;22.868;2023-03-01T04:17:46;102463.97;;;7.85;100.00
63808;BME280;49961;43.970;22.868;2023-03-01T04:18:47;102464.06;;;7.89;100.00
63808;BME280;49961;43.970;22.868;2023-03-01T04:19:47;102459.63;;;7.84;100.00
63808;BME280;49961;43.970;22.868;2023-03-01T04:20:49;102462.41;;;7.84;100.00
63808;BME280;49961;43.970;22.868;2023-03-01T04:21:52;102460.44;;;7.85;100.00
63808;BME280;49961;43.970;22.868;2023-03-01T04:23:00;102464.44;;;7.87;100.00
63808;BME280;49961;43.970;22.868;2023-03-01T04:24:10;102459.88;;;7.98;100.00
63808;BME280;49961;43.970;22.868;2023-03-01T04:25:11;102462.31;;;8.03;100.00
63808;BME280;49961;43.970;22.868;2023-03-01T04:26:14;102463.19;;;8.07;100.00
63808;BME280;49961;43.970;22.868;2023-03-01T04:27:14;102464.41;;;8.10;100.00
63808;BME280;49961;43.970;22.868;2023-03-01T04:28:15;102455.34;;;8.13;100.00
63808;BME280;49961;43.970;22.868;2023-03-01T04:29:15;102448.66;;;8.14;100.00
63808;BME280;49961;43.970;22.868;2023-03-01T04:32:12;102452.13;;;8.07;100.00
63808;BME280;49961;43.970;22.868;2023-03-01T04:33:16;102439.81;;;8.01;100.00
63808;BME280;49961;43.970;22.868;2023-03-01T04:34:17;102450.78;;;7.98;100.00
63808;BME280;49961;43.970;22.868;2023-03-01T04:35:17;102444.22;;;8.06;100.00
63808;BME280;49961;43.970;22.868;2023-03-01T04:36:19;102326.88;;;7.18;100.00
63808;BME280;49961;43.970;22.868;2023-03-01T04:37:20;102445.38;;;8.05;100.00
63808;BME280;49961;43.970;22.868;2023-03-01T04:38:20;102455.63;;;8.04;100.00
63808;BME280;49961;43.970;22.868;2023-03-01T04:39:21;102426.88;;;7.83;100.00
63808;BME280;49961;43.970;22.868;2023-03-01T04:40:22;102460.38;;;8.04;100.00
63808;BME280;49961;43.970;22.868;2023-03-01T04:41:24;102446.59;;;8.07;100.00
63808;BME280;49961;43.970;22.868;2023-03-01T04:42:24;102428.22;;;7.92;100.00
63808;BME280;49961;43.970;22.868;2023-03-01T04:43:25;102440.28;;;8.07;100.00
63808;BME280;49961;43.970;22.868;2023-03-01T04:44:25;102443.41;;;8.05;100.00
63808;BME280;49961;43.970;22.868;2023-03-01T04:45:26;102442.25;;;8.06;100.00
63808;BME280;49961;43.970;22.868;2023-03-01T04:46:27;102415.28;;;7.96;100.00
63808;BME280;49961;43.970;22.868;2023-03-01T04:47:28;102444.78;;;8.18;100.00
63808;BME280;49961;43.970;22.868;2023-03-01T04:48:30;102439.75;;;8.24;100.00
63808;BME280;49961;43.970;22.868;2023-03-01T04:49:30;102404.34;;;8.03;100.00
63808;BME280;49961;43.970;22.868;2023-03-01T04:50:31;102354.59;;;7.74;100.00
63808;BME280;49961;43.970;22.868;2023-03-01T04:51:31;102451.78;;;8.35;100.00
63808;BME280;49961;43.970;22.868;2023-03-01T04:52:35;102343.88;;;7.69;100.00
63808;BME280;49961;43.970;22.868;2023-03-01T04:53:35;102435.94;;;8.32;100.00
63808;BME280;49961;43.970;22.868;2023-03-01T04:54:36;102445.50;;;8.38;100.00
63808;BME280;49961;43.970;22.868;2023-03-01T04:55:37;102453.81;;;8.41;100.00
63808;BME280;49961;43.970;22.868;2023-03-01T04:56:37;102441.22;;;8.44;100.00
63808;BME280;49961;43.970;22.868;2023-03-01T04:57:38;102453.56;;;8.50;100.00
63808;BME280;49961;43.970;22.868;2023-03-01T04:58:38;102458.69;;;8.51;100.00
63808;BME280;49961;43.970;22.868;2023-03-01T04:59:39;102447.66;;;8.51;100.00
63808;BME280;49961;43.970;22.868;2023-03-01T05:00:39;102448.81;;;8.50;100.00
63808;BME280;49961;43.970;22.868;2023-03-01T05:01:39;102449.59;;;8.47;100.00
63808;BME280;49961;43.970;22.868;2023-03-01T05:02:42;102451.22;;;8.52;100.00
63808;BME280;49961;43.970;22.868;2023-03-01T05:03:44;102401.34;;;8.15;100.00
63808;BME280;49961;43.970;22.868;2023-03-01T05:04:45;102454.78;;;8.52;100.00
63808;BME280;49961;43.970;22.868;2023-03-01T05:05:48;102463.00;;;8.49;100.00
63808;BME280;49961;43.970;22.868;2023-03-01T05:06:49;102465.38;;;8.47;100.00
63808;BME280;49961;43.970;22.868;2023-03-01T05:07:50;102441.88;;;8.34;100.00
63808;BME280;49961;43.970;22.868;2023-03-01T05:08:50;102445.94;;;8.40;100.00
63808;BME280;49961;43.970;22.868;2023-03-01T05:09:51;102451.13;;;8.45;100.00
63808;BME280;49961;43.970;22.868;2023-03-01T05:10:52;102455.13;;;8.47;100.00
63808;BME280;49961;43.970;22.868;2023-03-01T05:11:53;102456.34;;;8.50;100.00
63808;BME280;49961;43.970;22.868;2023-03-01T05:12:53;102450.47;;;8.55;100.00
63808;BME280;49961;43.970;22.868;2023-03-01T05:13:54;102451.31;;;8.59;100.00
63808;BME280;49961;43.970;22.868;2023-03-01T05:14:55;102446.50;;;8.52;100.00
63808;BME280;49961;43.970;22.868;2023-03-01T05:15:58;102443.50;;;8.35;100.00
63808;BME280;49961;43.970;22.868;2023-03-01T05:16:58;102445.78;;;8.29;100.00
63808;BME280;49961;43.970;22.868;2023-03-01T05:18:04;102448.94;;;8.31;100.00
63808;BME280;49961;43.970;22.868;2023-03-01T05:19:04;102459.25;;;8.34;100.00
63808;BME280;49961;43.970;22.868;2023-03-01T05:20:11;102455.38;;;8.39;100.00
63808;BME280;49961;43.970;22.868;2023-03-01T05:21:14;102463.72;;;8.42;100.00
63808;BME280;49961;43.970;22.868;2023-03-01T05:22:17;102377.28;;;7.86;100.00
63808;BME280;49961;43.970;22.868;2023-03-01T05:23:19;102461.34;;;8.41;100.00
63808;BME280;49961;43.970;22.868;2023-03-01T05:24:19;102464.47;;;8.39;100.00
63808;BME280;49961;43.970;22.868;2023-03-01T05:25:20;102466.19;;;8.47;100.00
63808;BME280;49961;43.970;22.868;2023-03-01T05:26:21;102464.22;;;8.51;100.00
63808;BME280;49961;43.970;22.868;2023-03-01T05:27:21;102468.22;;;8.54;100.00
63808;BME280;49961;43.970;22.868;2023-03-01T05:28:22;102467.09;;;8.58;100.00
63808;BME280;49961;43.970;22.868;2023-03-01T05:29:24;102460.72;;;8.54;100.00
63808;BME280;49961;43.970;22.868;2023-03-01T05:30:25;102466.94;;;8.48;100.00
63808;BME280;49961;43.970;22.868;2023-03-01T05:31:25;102461.00;;;8.46;100.00
63808;BME280;49961;43.970;22.868;2023-03-01T05:32:26;102466.59;;;8.49;100.00
63808;BME280;49961;43.970;22.868;2023-03-01T05:33:27;102375.41;;;7.94;100.00
63808;BME280;49961;43.970;22.868;2023-03-01T05:34:33;102380.53;;;7.95;100.00
63808;BME280;49961;43.970;22.868;2023-03-01T05:35:35;102453.75;;;8.34;100.00
63808;BME280;49961;43.970;22.868;2023-03-01T05:36:36;102458.41;;;8.30;100.00
63808;BME280;49961;43.970;22.868;2023-03-01T05:37:36;102427.66;;;8.06;100.00